Alvwood, Minnesota
Current Conditions -  °F | °C
As of 12:14 AM on Sunday 26 Oct 2014 (Local Time) from KVWU Reporting Station
Clear Clear  
Wind Chill: 34°   Ceiling: Unl
Heat Index: 34°   Visibility: 10mi
Dew Point: 30°   Wind: 0mph
Humidity: 87%   Direction: NA
Pressure: 29.97"   Gusts: NA
Location:  47.7306°N, 94.3762°W
Report Text: KVWU 260514Z AUTO 00000KT 10SM CLR 01/M01 A2997 RMK AO2
Loading
Personal Weather Stations






























Interactive Weather Map New forecast layout! Learn more

10-Day Weather Forecast

Advertisements
Track Severe Weather on mobile